Terminal Aerodrome Forecast
Issued by NWS

Home | Current Version | Previous Version | Text Only | Print | Product List | Glossary On
Versions: 1 2 3 4 5 6 7 8 9 10 11 12 13 14 15 16
000
FTUS43 KFGF 281720
TAFTVF
TAF
KTVF 281720Z 2818/2918 20016KT P6SM VCSH BKN050 BKN150
     FM281830 20014G20KT P6SM BKN150
     FM282200 32010G17KT P6SM VCTS BKN050CB
     FM282300 32007KT P6SM BKN250
     FM291100 18003KT 5SM BR SKC
     FM291300 18005KT P6SM SKC
      AMD LTD TO CLD VIS AND WIND=

USA.gov is the U.S. government's official web portal to all federal, state and local government web resources and services.